Tipton, Oklahoma
Current Conditions -  °F | °C
As of 11:58 AM on Saturday 25 Oct 2014 (Local Time) from KLTS Reporting Station
Clear Clear  
Wind Chill: 80°   Ceiling: Unl
Heat Index: 80°   Visibility: 10mi
Dew Point: 55°   Wind: 3mph
Humidity: 42%   Direction: 210°SSW
Pressure: 30.12"   Gusts: NA
Location:  34.5°N, 99.14°W
Report Text: KLTS 251658Z AUTO 21003KT 10SM CLR 27/13 A3012 RMK AO2 SLP188 T02670129 $
Loading
Personal Weather Stations






























Interactive Weather Map New forecast layout! Learn more

10-Day Weather Forecast

Advertisements
Track Severe Weather on mobile